• Join FlightAware (Why Join?)
  • Login
  • US Flag 
08:18AM EDT


 

Airport Tracker/Info


-or-


 

Live Flight TrackerFlight Track Log ✈ USC105 ✈ 03-May-2013 ✈ KDPA - KYIP

Flight Track Log - Related Links

Times and Time Zones

All times are in EDT time to prevent confusion due to time zone crossing. See the USC105 flight status page for this flight to view local times or setup timezone preferences in your user account.

Time Position Orientation Groundspeed Altitude Reporting Facility
EDT Latitude Longitude Course Direction KTS MPH feet Rate Location/Type
05:43AM 41.9000 -88.2167 151° Southeast 128 147 2,100  Level Chicago TRACON
05:44AM 41.8500 -88.2167 180° South 111 128 3,300 960 Climbing Chicago TRACON
05:45AM 41.8392 -88.1842 114° Southeast 126 145 4,100 840 Climbing Chicago Center
05:46AM 41.8325 -88.1383 101° East 127 146 5,000 480 Climbing Chicago Center
05:47AM 41.8222 -88.0822 104° East 138 159 5,100  Climbing Chicago Center
05:48AM 41.9363 -87.9223 151° Southeast  Level Estimated
05:48AM 41.8122 -88.0183 102° East 157 181 5,100  Level Chicago Center
05:49AM 41.8022 -87.9544 102° East 168 193 5,100 180 Level Chicago Center
05:50AM 41.8047 -87.8914 87° East 177 204 5,500 480 Climbing Chicago Center
05:51AM 41.8167 -87.8167 78° East 161 185 6,200 540 Climbing Chicago TRACON
05:52AM 41.8167 -87.7500 90° East 162 186 6,700 360 Climbing Chicago TRACON
05:53AM 41.8333 -87.7000 66° East 173 199 7,000 120 Climbing Chicago TRACON
05:54AM 41.8333 -87.6333 90° East 178 205 7,000  Level Chicago TRACON
05:55AM 41.8381 -87.5672 85° East 179 206 7,100  Climbing Chicago Center
05:56AM 41.8450 -87.4983 82° East 185 213 7,100  Level Chicago Center
05:57AM 41.8503 -87.4275 84° East 190 219 7,100  Level Chicago Center
05:58AM 41.8553 -87.3569 85° East 191 220 7,100  Level Chicago Center
05:59AM 41.8667 -87.2872 78° East 193 222 7,100  Level Chicago Center
06:00AM 41.8731 -87.2181 83° East 188 216 7,100  Level Chicago Center
06:01AM 41.8806 -87.1492 82° East 188 216 7,100 -60 Level Chicago Center
06:02AM 41.8892 -87.0811 80° East 187 215 7,000 -60 Descending Chicago Center
06:03AM 41.8969 -87.0125 81° East 186 214 7,000  Level Chicago Center
06:04AM 41.9033 -86.9442 83° East 187 215 7,000  Level Chicago Center
06:05AM 41.9125 -86.8758 80° East 188 216 7,000  Level Chicago Center
06:06AM 41.9200 -86.8083 81° East 185 213 7,000  Level Chicago Center
06:07AM 41.9283 -86.7389 81° East 188 216 7,000  Level Chicago Center
06:08AM 41.9342 -86.6717 83° East 185 213 7,000  Level Chicago Center
06:09AM 41.9419 -86.6033 81° East 186 214 7,000  Level Chicago Center
06:10AM 41.9481 -86.5367 83° East 183 211 7,000  Level Chicago Center
06:11AM 41.9564 -86.4683 81° East 184 212 7,000  Level Chicago Center
06:12AM 41.9639 -86.3994 82° East 186 214 7,000 -60 Level Chicago Center
06:13AM 41.9711 -86.3319 82° East 184 212 6,900  Descending Chicago Center
06:14AM 41.9800 -86.2644 80° East 185 213 7,000  Climbing Chicago Center
06:15AM 41.9856 -86.1958 84° East 184 212 7,000  Level Chicago Center
06:16AM 41.9958 -86.1133 80° East 186 214 7,000  Level Chicago Center
06:17AM 42.0031 -86.0442 82° East 186 214 7,000  Level Chicago Center
06:18AM 42.0100 -85.9753 82° East 186 214 7,000  Level Chicago Center
06:19AM 42.0167 -85.9072 82° East 185 213 7,000  Level Chicago Center
06:20AM 42.0242 -85.8397 81° East 183 211 7,000  Level Chicago Center
06:21AM 42.0311 -85.7728 82° East 182 209 7,000  Level Chicago Center
06:22AM 42.0381 -85.7053 82° East 182 209 7,000  Level Chicago Center
06:23AM 42.0447 -85.6372 82° East 183 211 7,000  Level Chicago Center
06:24AM 42.0517 -85.5694 82° East 183 211 7,000  Level Chicago Center
06:25AM 42.0592 -85.5017 82° East 183 211 7,000  Level Chicago Center
06:26AM 42.0669 -85.4333 81° East 184 212 7,000  Level Chicago Center
06:27AM 42.0722 -85.3653 84° East 183 211 7,000  Level Chicago Center
06:28AM 42.0803 -85.2975 81° East 183 211 7,000  Level Chicago Center
06:29AM 42.0894 -85.2300 80° East 183 211 7,000  Level Chicago Center
06:30AM 42.0975 -85.1611 81° East 185 213 7,000  Level Chicago Center
06:31AM 42.1036 -85.0914 83° East 187 215 7,000 -60 Level Chicago Center
06:32AM 42.1117 -85.0231 81° East 186 214 6,900 -60 Descending Chicago Center
06:33AM 42.1119 -84.9539 90° East 184 212 6,900  Level Chicago Center
06:34AM 42.1153 -84.8853 86° East 184 212 7,000  Climbing Chicago Center
06:35AM 42.1236 -84.8164 81° East 185 213 6,900  Descending Chicago Center
06:36AM 42.1292 -84.7469 84° East 186 214 7,000  Climbing Chicago Center
06:37AM 42.1353 -84.6794 83° East 183 211 6,900 -60 Descending Chicago Center
06:38AM 42.1439 -84.6106 80° East 185 213 6,900  Level Chicago Center
06:39AM 42.1500 -84.5467 83° East 185 213 7,000  Climbing Cleveland Center
06:40AM 42.1525 -84.4767 87° East 183 211 7,000 -360 Level Cleveland Center
06:41AM 42.1589 -84.4042 83° East 202 232 6,300 -720 Descending Cleveland Center
06:42AM 42.1700 -84.3264 79° East 204 235 5,600 -600 Descending Cleveland Center
06:43AM 42.1764 -84.2511 83° East 202 232 5,100 -360 Descending Cleveland Center
06:44AM 42.1850 -84.1814 81° East 194 223 4,900 -240 Descending Cleveland Center
06:45AM 42.1850 -84.1114 90° East 179 206 4,700 -420 Descending Cleveland Center
06:46AM 42.1914 -84.0417 83° East 192 221 4,100 -600 Descending Cleveland Center
06:47AM 42.2019 -83.9694 79° East 190 219 3,600 -540 Descending Cleveland Center
06:48AM 42.2081 -83.9025 83° East 181 208 3,100 -300 Descending Cleveland Center
06:49AM 42.2142 -83.8356 83° East 167 192 3,000 -180 Descending Cleveland Center
06:50AM 42.2200 -83.7769 82° East 163 188 2,800 -300 Descending Cleveland Center
06:51AM 42.2278 -83.7128 81° East 169 194 2,500 -240 Descending Cleveland Center
06:52AM 42.2378 -83.6542 77° East 157 181 2,400 -420 Descending Cleveland Center
06:53AM 42.2436 -83.5956 82° East 137 158 1,700 -660 Descending Cleveland Center